Time;durP1;ratioP1;P1;durP2;ratioP2;P2;SDS_P1;SDS_P2;PMS_P1;PMS_P2;Temp;Humidity;BMP_temperature;BMP_pressure;BME280_temperature;BME280_humidity;BME280_pressure;Samples;Min_cycle;Max_cycle;Signal;HPM_P1;HPM_P2
2022/10/10 00:00:42;;;;;;;;;;;;;;;13.72;62.23;101379.13;5007772;27;119697;-69
2022/10/10 00:03:07;;;;;;;;;;;;;;;13.73;61.91;101381.44;5004636;28;120298;-70
2022/10/10 00:05:34;;;;;;;;;;;;;;;13.72;62.07;101371.63;5006818;27;119638;-70
2022/10/10 00:07:59;;;;;;;;;;;;;;;13.72;62.39;101368.09;5010058;28;119691;-71
2022/10/10 00:10:25;;;;;;;;;;;;;;;13.70;61.94;101365.03;5006408;27;119976;-70
2022/10/10 00:12:51;;;;;;;;;;;;;;;13.67;62.02;101360.41;5007064;28;119760;-70
2022/10/10 00:15:16;;;;;;;;;;;;;;;13.67;62.02;101350.16;5006749;27;120355;-70
2022/10/10 00:17:42;;;;;;;;;;;;;;;13.66;62.03;101353.38;5009422;28;119915;-70
2022/10/10 00:20:12;;;;;;;;;;;;;;;13.65;62.07;101352.59;5012057;27;119222;-70
2022/10/10 00:22:38;;;;;;;;;;;;;;;13.62;62.15;101345.25;5009895;28;122414;-70
2022/10/10 00:25:05;;;;;;;;;;;;;;;13.61;62.19;101334.69;5010343;27;119685;-71
2022/10/10 00:27:31;;;;;;;;;;;;;;;13.60;62.15;101336.66;5013552;28;119621;-71
2022/10/10 00:29:57;;;;;;;;;;;;;;;13.60;61.85;101335.91;4993448;28;119535;-70
2022/10/10 00:32:22;;;;;;;;;;;;;;;13.59;62.21;101331.59;5011307;28;119755;-70
2022/10/10 00:34:48;;;;;;;;;;;;;;;13.56;62.10;101330.53;5009691;28;121699;-70
2022/10/10 00:37:13;;;;;;;;;;;;;;;13.56;62.29;101324.25;5000053;27;119920;-70
2022/10/10 00:39:39;;;;;;;;;;;;;;;13.54;61.96;101318.44;5009851;28;119461;-71
2022/10/10 00:42:04;;;;;;;;;;;;;;;13.53;62.04;101303.88;5004227;28;119802;-71
2022/10/10 00:44:30;;;;;;;;;;;;;;;13.50;62.18;101302.81;5010950;28;119295;-69
2022/10/10 00:46:56;;;;;;;;;;;;;;;13.49;62.34;101303.28;5005551;28;119589;-69
2022/10/10 00:49:23;;;;;;;;;;;;;;;13.47;62.24;101300.94;5009394;28;120149;-70
2022/10/10 00:51:52;;;;;;;;;;;;;;;13.44;62.30;101293.59;5009664;28;119706;-70
2022/10/10 00:54:19;;;;;;;;;;;;;;;13.43;61.84;101294.81;5010317;28;120233;-69
2022/10/10 00:57:04;;;;;;;;;;;;;;;13.43;62.06;101286.53;5011210;27;120067;-71
2022/10/10 00:59:31;;;;;;;;;;;;;;;13.44;62.19;101281.78;5010291;27;119784;-70
2022/10/10 01:01:57;;;;;;;;;;;;;;;13.42;61.95;101290.53;5010080;27;120102;-71
2022/10/10 01:04:42;;;;;;;;;;;;;;;13.41;61.98;101277.97;5005834;28;119476;-71
2022/10/10 01:07:10;;;;;;;;;;;;;;;13.39;62.18;101269.38;5010480;27;119747;-70
2022/10/10 01:09:36;;;;;;;;;;;;;;;13.36;61.97;101273.06;5009019;27;120066;-71
2022/10/10 01:12:19;;;;;;;;;;;;;;;13.35;62.10;101268.00;5001391;28;119657;-71
2022/10/10 01:15:05;;;;;;;;;;;;;;;13.32;62.15;101264.16;5007152;28;120593;-71
2022/10/10 01:17:39;;;;;;;;;;;;;;;13.32;62.54;101258.66;5010738;28;119513;-70
2022/10/10 01:20:23;;;;;;;;;;;;;;;13.31;62.41;101262.63;4992241;27;119786;-70
2022/10/10 01:23:09;;;;;;;;;;;;;;;13.29;62.45;101253.31;4995305;28;119728;-71
2022/10/10 01:25:51;;;;;;;;;;;;;;;13.28;62.09;101262.78;5002804;28;120052;-71
2022/10/10 01:28:23;;;;;;;;;;;;;;;13.27;62.40;101250.25;5007599;27;120428;-71
2022/10/10 01:30:48;;;;;;;;;;;;;;;13.28;62.58;101251.78;5010479;28;120495;-71
2022/10/10 01:33:15;;;;;;;;;;;;;;;13.26;62.54;101243.19;5008643;28;119744;-69
2022/10/10 01:35:41;;;;;;;;;;;;;;;13.27;62.32;101236.47;5007932;28;119314;-70
2022/10/10 01:38:11;;;;;;;;;;;;;;;13.24;62.22;101235.34;5010395;28;119735;-70
2022/10/10 01:40:37;;;;;;;;;;;;;;;13.23;62.15;101230.31;5008940;28;119265;-70
2022/10/10 01:43:05;;;;;;;;;;;;;;;13.22;62.23;101226.78;5003013;28;120686;-71
2022/10/10 01:45:30;;;;;;;;;;;;;;;13.20;62.33;101227.25;4995899;28;120178;-70
2022/10/10 01:47:59;;;;;;;;;;;;;;;13.20;62.25;101226.47;5007717;28;119505;-70
2022/10/10 01:50:25;;;;;;;;;;;;;;;13.19;62.26;101220.19;5008256;28;119763;-70
2022/10/10 01:52:54;;;;;;;;;;;;;;;13.19;62.58;101211.16;5010572;28;119826;-70
2022/10/10 01:55:26;;;;;;;;;;;;;;;13.18;62.48;101209.63;5007502;28;119372;-70
2022/10/10 01:58:04;;;;;;;;;;;;;;;13.17;62.39;101205.31;5011528;28;121548;-70
2022/10/10 02:00:34;;;;;;;;;;;;;;;13.17;62.32;101206.13;5005874;28;119304;-71
2022/10/10 02:03:14;;;;;;;;;;;;;;;13.16;62.21;101209.28;5004742;28;120053;-71
2022/10/10 02:05:46;;;;;;;;;;;;;;;13.15;62.58;101205.00;4981864;28;119665;-70
2022/10/10 02:08:18;;;;;;;;;;;;;;;13.12;62.26;101200.41;4992202;28;119684;-71
2022/10/10 02:10:47;;;;;;;;;;;;;;;13.10;62.31;101195.38;5006854;28;119392;-70
2022/10/10 02:13:14;;;;;;;;;;;;;;;13.11;62.26;101196.13;5008114;28;119702;-71
2022/10/10 02:16:10;;;;;;;;;;;;;;;13.09;62.45;101191.06;5004437;28;119380;-71
2022/10/10 02:18:37;;;;;;;;;;;;;;;13.06;62.50;101191.22;5002036;28;120940;-70
2022/10/10 02:21:03;;;;;;;;;;;;;;;13.04;62.44;101202.69;5005857;28;119304;-71
2022/10/10 02:23:30;;;;;;;;;;;;;;;13.03;62.60;101197.66;5009752;28;120616;-71
2022/10/10 02:25:56;;;;;;;;;;;;;;;13.02;62.69;101190.59;5009551;28;119671;-71
2022/10/10 02:28:30;;;;;;;;;;;;;;;12.99;62.43;101181.25;5011933;27;119800;-71
2022/10/10 02:30:58;;;;;;;;;;;;;;;12.96;62.24;101184.91;5009212;28;119327;-70
2022/10/10 02:33:27;;;;;;;;;;;;;;;12.94;62.54;101181.84;5008199;27;120066;-70
2022/10/10 02:35:53;;;;;;;;;;;;;;;12.93;62.77;101183.06;5009543;28;119799;-71
2022/10/10 02:38:19;;;;;;;;;;;;;;;12.90;62.57;101170.97;5006944;27;119899;-70
2022/10/10 02:40:46;;;;;;;;;;;;;;;12.89;62.71;101169.44;5010710;28;119666;-70
2022/10/10 02:43:13;;;;;;;;;;;;;;;12.88;62.31;101172.66;5004291;28;119859;-71
2022/10/10 02:45:39;;;;;;;;;;;;;;;12.85;62.61;101171.56;5004782;27;119996;-70
2022/10/10 02:48:05;;;;;;;;;;;;;;;12.83;62.25;101165.75;5000958;28;119703;-70
2022/10/10 02:50:31;;;;;;;;;;;;;;;12.80;62.24;101158.41;5000776;27;119112;-69
2022/10/10 02:52:57;;;;;;;;;;;;;;;12.80;62.54;101152.91;5004921;27;120554;-72
2022/10/10 02:55:22;;;;;;;;;;;;;;;12.77;62.29;101167.56;5008361;28;119350;-69
2022/10/10 02:57:48;;;;;;;;;;;;;;;12.77;62.62;101155.78;5008552;28;119294;-72
2022/10/10 03:00:14;;;;;;;;;;;;;;;12.76;62.70;101151.50;5009139;28;119289;-72
2022/10/10 03:02:42;;;;;;;;;;;;;;;12.74;62.84;101151.94;5011579;27;119882;-70
2022/10/10 03:05:08;;;;;;;;;;;;;;;12.73;63.03;101144.91;5000093;28;119858;-69
2022/10/10 03:07:34;;;;;;;;;;;;;;;12.74;62.66;101149.19;5002243;28;119417;-70
2022/10/10 03:10:00;;;;;;;;;;;;;;;12.72;62.70;101139.84;5007498;28;120555;-69
2022/10/10 03:12:26;;;;;;;;;;;;;;;12.70;62.48;101132.06;5000593;28;119487;-70
2022/10/10 03:14:51;;;;;;;;;;;;;;;12.68;62.82;101134.50;5006053;28;119785;-69
2022/10/10 03:17:17;;;;;;;;;;;;;;;12.66;62.66;101134.19;5007287;28;121699;-70
2022/10/10 03:19:42;;;;;;;;;;;;;;;12.65;62.88;101132.66;4997327;28;120301;-69
2022/10/10 03:22:08;;;;;;;;;;;;;;;12.63;63.05;101124.09;5009361;28;119872;-70
2022/10/10 03:24:33;;;;;;;;;;;;;;;12.64;62.77;101130.38;5012107;27;119421;-70
2022/10/10 03:26:59;;;;;;;;;;;;;;;12.62;62.98;101119.03;4997270;27;119938;-69
2022/10/10 03:29:25;;;;;;;;;;;;;;;12.59;62.97;101115.22;5007427;28;120581;-70
2022/10/10 03:31:50;;;;;;;;;;;;;;;12.57;62.57;101112.16;5004180;28;119852;-70
2022/10/10 03:34:16;;;;;;;;;;;;;;;12.57;62.85;101114.91;4999990;28;119409;-70
2022/10/10 03:36:41;;;;;;;;;;;;;;;12.56;62.74;101119.66;5006486;28;120092;-70
2022/10/10 03:39:08;;;;;;;;;;;;;;;12.55;62.63;101109.84;5008925;28;119237;-70
2022/10/10 03:41:34;;;;;;;;;;;;;;;12.53;62.64;101111.50;5008978;27;119195;-70
2022/10/10 03:43:59;;;;;;;;;;;;;;;12.53;62.98;101104.00;5006927;28;120222;-70
2022/10/10 03:46:25;;;;;;;;;;;;;;;12.52;62.74;101109.97;4989220;28;120243;-70
2022/10/10 03:48:50;;;;;;;;;;;;;;;12.51;62.72;101091.94;4991452;28;119969;-69
2022/10/10 03:51:16;;;;;;;;;;;;;;;12.49;63.02;101091.63;5009781;27;119897;-69
2022/10/10 03:53:41;;;;;;;;;;;;;;;12.48;62.94;101092.84;5008368;27;119417;-70
2022/10/10 03:56:07;;;;;;;;;;;;;;;12.46;62.89;101089.78;5003437;28;122912;-70
2022/10/10 03:58:38;;;;;;;;;;;;;;;12.44;63.08;101070.22;5011585;28;119735;-70
2022/10/10 04:01:06;;;;;;;;;;;;;;;12.42;62.94;101080.91;5012104;28;119855;-69
2022/10/10 04:03:32;;;;;;;;;;;;;;;12.41;63.01;101079.38;5011210;28;119348;-69
2022/10/10 04:05:57;;;;;;;;;;;;;;;12.41;62.90;101073.88;5006173;27;119948;-70
2022/10/10 04:08:23;;;;;;;;;;;;;;;12.40;63.11;101078.59;5010099;27;119311;-69
2022/10/10 04:10:50;;;;;;;;;;;;;;;12.39;63.34;101077.06;5003181;28;119650;-69
2022/10/10 04:13:15;;;;;;;;;;;;;;;12.39;63.01;101079.06;5007989;28;119537;-70
2022/10/10 04:15:41;;;;;;;;;;;;;;;12.40;63.01;101078.59;5002738;28;119605;-70
2022/10/10 04:18:06;;;;;;;;;;;;;;;12.38;62.99;101067.28;5016045;27;120061;-70
2022/10/10 04:20:32;;;;;;;;;;;;;;;12.38;63.08;101061.78;5001981;27;119621;-70
2022/10/10 04:22:58;;;;;;;;;;;;;;;12.37;62.95;101051.25;5001453;28;120358;-70
2022/10/10 04:25:23;;;;;;;;;;;;;;;12.36;62.93;101052.47;5012025;27;119574;-70
2022/10/10 04:27:49;;;;;;;;;;;;;;;12.34;63.27;101057.66;5010870;28;119819;-70
2022/10/10 04:30:15;;;;;;;;;;;;;;;12.32;62.92;101049.84;5015569;28;119676;-69
2022/10/10 04:32:40;;;;;;;;;;;;;;;12.32;63.13;101049.09;5011624;28;119957;-69
2022/10/10 04:35:06;;;;;;;;;;;;;;;12.29;63.04;101048.75;5010036;27;120922;-69
2022/10/10 04:37:32;;;;;;;;;;;;;;;12.29;63.23;101048.75;5011486;28;119542;-70
2022/10/10 04:40:06;;;;;;;;;;;;;;;12.29;63.22;101042.47;5007490;28;119375;-70
2022/10/10 04:42:32;;;;;;;;;;;;;;;12.27;63.09;101044.94;5006802;27;119661;-69
2022/10/10 04:44:57;;;;;;;;;;;;;;;12.27;63.15;101044.94;5010889;27;119345;-70
2022/10/10 04:47:23;;;;;;;;;;;;;;;12.25;63.23;101031.63;5011989;28;119484;-70
2022/10/10 04:49:49;;;;;;;;;;;;;;;12.25;63.29;101039.88;5013973;27;119695;-70
2022/10/10 04:52:15;;;;;;;;;;;;;;;12.25;63.43;101033.63;5010744;28;119304;-70
2022/10/10 04:54:40;;;;;;;;;;;;;;;12.23;63.19;101038.81;5006761;28;119423;-69
2022/10/10 04:57:06;;;;;;;;;;;;;;;12.24;63.15;101032.84;5011128;27;119434;-69
2022/10/10 04:59:31;;;;;;;;;;;;;;;12.22;63.15;101040.03;5003663;28;119745;-69
2022/10/10 05:01:57;;;;;;;;;;;;;;;12.21;63.22;101033.00;5005000;28;119929;-69
2022/10/10 05:04:22;;;;;;;;;;;;;;;12.19;63.24;101036.19;5009459;28;119464;-70
2022/10/10 05:06:48;;;;;;;;;;;;;;;12.17;62.99;101040.63;5009940;28;119340;-70
2022/10/10 05:09:16;;;;;;;;;;;;;;;12.15;63.26;101032.06;5002218;28;120463;-70
2022/10/10 05:11:42;;;;;;;;;;;;;;;12.14;63.41;101025.78;5011297;28;119579;-70
2022/10/10 05:14:08;;;;;;;;;;;;;;;12.13;63.41;101029.75;5007443;28;120449;-69
2022/10/10 05:16:33;;;;;;;;;;;;;;;12.13;63.09;101026.25;5011116;28;119721;-70
2022/10/10 05:19:00;;;;;;;;;;;;;;;12.13;63.33;101024.25;5009676;28;119823;-70
2022/10/10 05:21:26;;;;;;;;;;;;;;;12.10;63.49;101016.91;5004143;28;120566;-69
2022/10/10 05:23:52;;;;;;;;;;;;;;;12.08;63.35;101022.09;4996580;28;119281;-69
2022/10/10 05:26:19;;;;;;;;;;;;;;;12.06;63.44;101016.28;5007776;28;119787;-70
2022/10/10 05:28:45;;;;;;;;;;;;;;;12.03;63.33;101017.19;5002760;28;121898;-69
2022/10/10 05:31:10;;;;;;;;;;;;;;;11.99;63.06;101014.56;5011215;28;119571;-70
2022/10/10 05:33:36;;;;;;;;;;;;;;;11.94;63.22;101003.41;5012473;28;119518;-70
2022/10/10 05:36:06;;;;;;;;;;;;;;;11.91;63.24;101004.31;5010690;27;119383;-69
2022/10/10 05:38:31;;;;;;;;;;;;;;;11.88;63.22;100999.72;5009131;28;119542;-70
2022/10/10 05:40:57;;;;;;;;;;;;;;;11.83;63.27;100995.59;5009767;27;119917;-70
2022/10/10 05:46:23;;;;;;;;;;;;;;;11.79;63.38;100989.44;5804218;22;120492;-91
2022/10/10 05:48:55;;;;;;;;;;;;;;;11.77;63.53;100980.84;4940677;22;121557;-76
2022/10/10 05:51:21;;;;;;;;;;;;;;;11.77;63.43;100977.34;4927055;28;119462;-76
2022/10/10 05:53:47;;;;;;;;;;;;;;;11.74;63.58;100986.47;4929540;28;119988;-76
2022/10/10 05:56:15;;;;;;;;;;;;;;;11.73;63.45;100980.22;4933698;28;120288;-77
2022/10/10 05:58:41;;;;;;;;;;;;;;;11.73;63.48;100979.44;4929637;28;119349;-77
2022/10/10 06:01:07;;;;;;;;;;;;;;;11.74;63.61;100970.00;4927528;28;119937;-77
2022/10/10 06:03:34;;;;;;;;;;;;;;;11.75;63.72;100977.00;4921251;28;119574;-76
2022/10/10 06:06:00;;;;;;;;;;;;;;;11.76;63.83;100967.56;4911762;28;119576;-77
2022/10/10 06:08:25;;;;;;;;;;;;;;;11.79;64.16;100966.69;4928679;28;120283;-77
2022/10/10 06:10:51;;;;;;;;;;;;;;;11.81;63.95;100970.50;4925267;28;119808;-76
2022/10/10 06:13:18;;;;;;;;;;;;;;;11.83;63.83;100968.09;4928932;28;120982;-77
2022/10/10 06:15:43;;;;;;;;;;;;;;;11.85;63.90;100964.91;4930306;28;119780;-77
2022/10/10 06:18:09;;;;;;;;;;;;;;;11.87;63.90;100967.94;4925601;28;119546;-76
2022/10/10 06:20:35;;;;;;;;;;;;;;;11.88;64.02;100974.97;4928793;28;119676;-76
2022/10/10 06:23:01;;;;;;;;;;;;;;;11.89;63.80;100971.78;4921648;28;119832;-76
2022/10/10 06:25:26;;;;;;;;;;;;;;;11.91;64.08;100968.56;4931533;28;120055;-76
2022/10/10 06:27:52;;;;;;;;;;;;;;;11.92;64.00;100968.13;4922641;28;120882;-77
2022/10/10 06:30:17;;;;;;;;;;;;;;;11.93;64.04;100966.91;4931358;28;119473;-77
2022/10/10 06:32:43;;;;;;;;;;;;;;;11.96;63.83;100959.72;4929357;28;119521;-76
2022/10/10 06:35:09;;;;;;;;;;;;;;;11.97;63.83;100969.50;4930226;28;120206;-77
2022/10/10 06:38:10;;;;;;;;;;;;;;;11.99;64.19;100962.34;4894455;28;119715;-76
2022/10/10 06:40:36;;;;;;;;;;;;;;;12.04;64.27;100958.22;4922322;28;119513;-76
2022/10/10 06:43:03;;;;;;;;;;;;;;;12.07;64.06;100960.09;4928129;28;121266;-76
2022/10/10 06:45:29;;;;;;;;;;;;;;;12.11;64.29;100959.94;4931586;28;119848;-77
2022/10/10 06:47:57;;;;;;;;;;;;;;;12.14;64.26;100957.03;4929089;28;119351;-76
2022/10/10 06:50:23;;;;;;;;;;;;;;;12.18;64.06;100960.41;4934064;28;119836;-77
2022/10/10 06:52:48;;;;;;;;;;;;;;;12.23;64.15;100954.31;4942660;28;120132;-76
2022/10/10 06:55:16;;;;;;;;;;;;;;;12.25;64.25;100960.13;4919318;28;139850;-76
2022/10/10 06:57:41;;;;;;;;;;;;;;;12.28;64.09;100952.94;4896807;28;120027;-77
2022/10/10 07:00:08;;;;;;;;;;;;;;;12.29;64.10;100944.22;4933133;28;119453;-76
2022/10/10 07:02:33;;;;;;;;;;;;;;;12.33;64.15;100946.09;4929452;28;119118;-76
2022/10/10 07:04:59;;;;;;;;;;;;;;;12.36;64.05;100947.94;4929279;28;119670;-76
2022/10/10 07:07:24;;;;;;;;;;;;;;;12.39;63.98;100944.25;4920865;28;119979;-76
2022/10/10 07:09:50;;;;;;;;;;;;;;;12.43;63.96;100947.63;4928182;28;120119;-76
2022/10/10 07:12:16;;;;;;;;;;;;;;;12.46;64.07;100943.97;4927695;28;119873;-77
2022/10/10 07:14:41;;;;;;;;;;;;;;;12.50;64.01;100942.59;4921914;28;120128;-76
2022/10/10 07:17:13;;;;;;;;;;;;;;;12.55;64.38;100933.75;4923412;28;119993;-76
2022/10/10 07:19:41;;;;;;;;;;;;;;;12.62;64.33;100937.41;4928769;28;119915;-76
2022/10/10 07:22:07;;;;;;;;;;;;;;;12.62;63.59;100929.16;4933419;28;120394;-76
2022/10/10 07:24:32;;;;;;;;;;;;;;;12.62;63.91;100927.16;4917250;28;119537;-76
2022/10/10 07:26:58;;;;;;;;;;;;;;;12.68;63.95;100924.56;4920841;28;120165;-76
2022/10/10 07:29:24;;;;;;;;;;;;;;;12.72;63.50;100925.94;4926431;28;119422;-76
2022/10/10 07:31:49;;;;;;;;;;;;;;;12.69;63.44;100923.34;4920244;28;119417;-76
2022/10/10 07:34:15;;;;;;;;;;;;;;;12.83;63.27;100939.25;4927170;28;119695;-76
2022/10/10 07:36:41;;;;;;;;;;;;;;;12.87;63.06;100937.09;4928172;28;119645;-76
2022/10/10 07:39:07;;;;;;;;;;;;;;;12.96;63.18;100944.59;4927198;28;119792;-76
2022/10/10 07:41:33;;;;;;;;;;;;;;;13.03;63.02;100936.03;4921898;28;120098;-76
2022/10/10 07:43:58;;;;;;;;;;;;;;;13.12;63.50;100930.50;4928545;28;119734;-77
2022/10/10 07:46:24;;;;;;;;;;;;;;;13.22;63.34;100926.53;4927209;28;119488;-75
2022/10/10 07:48:50;;;;;;;;;;;;;;;13.34;63.00;100933.09;4920179;28;119678;-76
2022/10/10 07:51:16;;;;;;;;;;;;;;;13.43;62.96;100936.56;4925666;28;119413;-76
2022/10/10 07:53:44;;;;;;;;;;;;;;;13.54;62.51;100929.81;4924428;28;119735;-76
2022/10/10 07:56:10;;;;;;;;;;;;;;;13.64;62.65;100926.56;4926663;28;120191;-76
2022/10/10 07:58:35;;;;;;;;;;;;;;;13.75;62.49;100920.56;4927984;28;119417;-76
2022/10/10 08:01:07;;;;;;;;;;;;;;;13.88;62.36;100918.34;4924675;28;119886;-76
2022/10/10 08:03:33;;;;;;;;;;;;;;;13.97;61.99;100914.78;4932751;28;119724;-76
2022/10/10 08:06:01;;;;;;;;;;;;;;;14.06;61.94;100925.75;4937390;28;119319;-76
2022/10/10 08:08:27;;;;;;;;;;;;;;;14.13;61.76;100917.13;4931502;28;119748;-75
2022/10/10 08:10:52;;;;;;;;;;;;;;;14.20;61.76;100911.28;4937619;28;120352;-76
2022/10/10 08:13:18;;;;;;;;;;;;;;;14.29;61.61;100913.22;4926575;28;121128;-76
2022/10/10 08:15:43;;;;;;;;;;;;;;;14.34;61.07;100909.78;4927586;28;119854;-75
2022/10/10 08:18:09;;;;;;;;;;;;;;;14.36;60.78;100908.09;4925688;28;120012;-76
2022/10/10 08:20:35;;;;;;;;;;;;;;;14.37;60.64;100903.34;4925294;28;119902;-75
2022/10/10 08:23:00;;;;;;;;;;;;;;;14.39;60.63;100907.16;4923950;28;119563;-75
2022/10/10 08:25:26;;;;;;;;;;;;;;;14.48;60.82;100900.09;4925973;28;119895;-75
2022/10/10 08:27:52;;;;;;;;;;;;;;;14.58;60.94;100898.75;4910366;28;119182;-76
2022/10/10 08:30:18;;;;;;;;;;;;;;;14.63;60.57;100890.56;4926235;28;119279;-76
2022/10/10 08:32:55;;;;;;;;;;;;;;;14.66;59.94;100889.63;4923352;28;122861;-76
2022/10/10 08:35:20;;;;;;;;;;;;;;;14.73;60.35;100897.56;4925701;28;120048;-76
2022/10/10 08:37:46;;;;;;;;;;;;;;;14.84;60.54;100891.47;4931689;28;120159;-75
2022/10/10 08:40:14;;;;;;;;;;;;;;;14.89;60.06;100890.81;4928129;28;121985;-76
2022/10/10 08:42:47;;;;;;;;;;;;;;;14.95;59.86;100888.94;4929985;28;119716;-76
2022/10/10 08:45:15;;;;;;;;;;;;;;;15.03;60.17;100887.31;4927571;28;119931;-76
2022/10/10 08:47:44;;;;;;;;;;;;;;;15.11;60.26;100884.91;4930857;28;121261;-75
2022/10/10 08:50:12;;;;;;;;;;;;;;;15.21;60.09;100886.34;4933113;28;120734;-75
2022/10/10 08:52:41;;;;;;;;;;;;;;;15.31;59.72;100884.25;4927692;28;120076;-77
2022/10/10 08:55:18;;;;;;;;;;;;;;;15.40;59.81;100880.63;4929422;28;119797;-75
2022/10/10 08:57:52;;;;;;;;;;;;;;;15.52;59.64;100885.06;4931893;28;119236;-75
2022/10/10 09:00:20;;;;;;;;;;;;;;;15.60;59.85;100891.75;4912339;28;121063;-75
2022/10/10 09:02:52;;;;;;;;;;;;;;;15.65;59.42;100885.56;4929178;28;119977;-76
2022/10/10 09:05:19;;;;;;;;;;;;;;;15.69;59.31;100880.59;4945680;28;119781;-76
2022/10/10 09:08:05;;;;;;;;;;;;;;;15.74;59.25;100888.19;4928013;28;119592;-77
2022/10/10 09:10:39;;;;;;;;;;;;;;;15.77;58.51;100884.47;4939881;28;119987;-76
2022/10/10 09:13:05;;;;;;;;;;;;;;;15.79;58.58;100879.22;4927400;28;119586;-78
2022/10/10 09:15:44;;;;;;;;;;;;;;;15.84;58.56;100872.22;4932467;28;119976;-79
2022/10/10 09:18:45;;;;;;;;;;;;;;;15.92;58.33;100873.38;4943021;28;119947;-80
2022/10/10 09:21:24;;;;;;;;;;;;;;;15.99;58.13;100858.34;4926144;28;121052;-80
2022/10/10 09:23:56;;;;;;;;;;;;;;;16.03;57.87;100854.13;4929141;28;120183;-77
2022/10/10 09:26:26;;;;;;;;;;;;;;;16.07;57.81;100851.16;4927162;28;119549;-77
2022/10/10 09:28:52;;;;;;;;;;;;;;;16.12;57.74;100856.03;4929744;28;119943;-77
2022/10/10 09:31:17;;;;;;;;;;;;;;;16.18;57.85;100860.38;4925829;28;119695;-76
2022/10/10 09:33:57;;;;;;;;;;;;;;;16.25;58.14;100859.94;4930305;28;119609;-77
2022/10/10 09:36:24;;;;;;;;;;;;;;;16.33;57.92;100860.31;4927898;28;119922;-76
2022/10/10 09:38:52;;;;;;;;;;;;;;;16.41;57.87;100855.09;4929934;28;119954;-77
2022/10/10 09:41:21;;;;;;;;;;;;;;;16.45;57.32;100850.88;4932745;28;119565;-77
2022/10/10 09:43:47;;;;;;;;;;;;;;;16.51;57.29;100846.16;4933207;28;119905;-77
2022/10/10 09:46:13;;;;;;;;;;;;;;;16.54;57.25;100850.69;4937581;28;120312;-76
2022/10/10 09:48:40;;;;;;;;;;;;;;;16.54;56.95;100842.41;4931492;28;120052;-76
2022/10/10 09:51:07;;;;;;;;;;;;;;;16.53;56.80;100851.19;4926414;28;119641;-77
2022/10/10 09:53:52;;;;;;;;;;;;;;;16.56;57.10;100845.47;4938642;28;119413;-77
2022/10/10 09:56:21;;;;;;;;;;;;;;;16.58;57.08;100837.44;4938016;28;119820;-77
2022/10/10 09:59:26;;;;;;;;;;;;;;;16.58;56.61;100844.97;4933505;28;120001;-77
2022/10/10 10:02:02;;;;;;;;;;;;;;;16.51;57.34;100832.31;4927998;28;119992;-77
2022/10/10 10:04:32;;;;;;;;;;;;;;;16.63;57.30;100849.03;4923024;28;119469;-77
2022/10/10 10:07:06;;;;;;;;;;;;;;;16.64;57.67;100847.78;4927891;28;120454;-79
2022/10/10 10:09:32;;;;;;;;;;;;;;;16.64;57.54;100847.78;4928197;28;120059;-77
2022/10/10 10:12:06;;;;;;;;;;;;;;;16.67;57.71;100847.59;4930001;28;119886;-76
2022/10/10 10:14:37;;;;;;;;;;;;;;;16.69;57.71;100847.13;4895684;28;119976;-77
2022/10/10 10:17:07;;;;;;;;;;;;;;;16.75;57.57;100845.16;4924173;28;120441;-77
2022/10/10 10:19:37;;;;;;;;;;;;;;;16.81;57.55;100838.44;4915077;28;120060;-77
2022/10/10 10:22:03;;;;;;;;;;;;;;;16.92;57.52;100835.00;4930100;28;120171;-77
2022/10/10 10:24:34;;;;;;;;;;;;;;;17.05;57.66;100834.63;4927269;28;119579;-77
2022/10/10 10:27:14;;;;;;;;;;;;;;;17.13;57.59;100830.13;4914704;28;119676;-77
2022/10/10 10:29:44;;;;;;;;;;;;;;;17.18;57.17;100826.63;4928241;28;119906;-77
2022/10/10 10:32:16;;;;;;;;;;;;;;;17.25;57.22;100830.97;4926684;28;120095;-77
2022/10/10 10:34:44;;;;;;;;;;;;;;;17.29;57.15;100817.66;4928068;28;120018;-77
2022/10/10 10:37:16;;;;;;;;;;;;;;;17.32;57.14;100819.44;4926589;28;119968;-77
2022/10/10 10:40:01;;;;;;;;;;;;;;;17.35;56.97;100824.00;4927396;28;119766;-76
2022/10/10 10:42:41;;;;;;;;;;;;;;;17.41;57.13;100824.78;4927354;28;120501;-77
2022/10/10 10:45:19;;;;;;;;;;;;;;;17.49;57.31;100817.50;4927499;28;120085;-77
2022/10/10 10:47:56;;;;;;;;;;;;;;;17.55;56.98;100823.88;4925657;28;119514;-77
2022/10/10 10:50:41;;;;;;;;;;;;;;;17.59;56.87;100816.09;4929027;28;119638;-76
2022/10/10 10:53:15;;;;;;;;;;;;;;;17.61;56.93;100821.88;4926697;28;120064;-77
2022/10/10 10:55:58;;;;;;;;;;;;;;;17.60;56.75;100814.81;4926608;28;119817;-76
2022/10/10 10:58:38;;;;;;;;;;;;;;;17.61;56.97;100816.34;4926954;28;119873;-77
2022/10/10 11:01:07;;;;;;;;;;;;;;;17.65;56.68;100808.53;4925000;28;119697;-77
2022/10/10 11:03:33;;;;;;;;;;;;;;;17.68;56.65;100806.81;4925420;28;119549;-77
2022/10/10 11:06:19;;;;;;;;;;;;;;;17.72;56.84;100805.31;4926065;28;120350;-77
2022/10/10 11:08:47;;;;;;;;;;;;;;;17.77;56.44;100801.84;4923971;28;119849;-77
2022/10/10 11:11:16;;;;;;;;;;;;;;;17.82;56.30;100810.69;4925006;28;119589;-77
2022/10/10 11:14:05;;;;;;;;;;;;;;;17.88;56.51;100811.47;4941799;28;120266;-77
2022/10/10 11:16:40;;;;;;;;;;;;;;;17.94;56.59;100807.44;4923038;28;119729;-77
2022/10/10 11:19:19;;;;;;;;;;;;;;;17.98;56.42;100810.75;4922257;28;119802;-77
2022/10/10 11:21:59;;;;;;;;;;;;;;;18.02;56.54;100800.19;4929753;28;120164;-76
2022/10/10 11:24:49;;;;;;;;;;;;;;;18.04;56.50;100794.88;4922347;28;119790;-77
2022/10/10 11:27:19;;;;;;;;;;;;;;;18.08;56.28;100795.41;4929786;28;119880;-77
2022/10/10 11:29:57;;;;;;;;;;;;;;;18.12;56.51;100803.47;4922763;28;119960;-77
2022/10/10 11:32:29;;;;;;;;;;;;;;;18.18;56.36;100793.16;4926313;28;120058;-77
2022/10/10 11:35:30;;;;;;;;;;;;;;;18.23;56.24;100788.88;4926595;28;119970;-77
2022/10/10 11:38:30;;;;;;;;;;;;;;;18.29;56.41;100792.44;4929291;28;119710;-77
2022/10/10 11:41:02;;;;;;;;;;;;;;;18.30;56.15;100789.16;4923230;28;119978;-76
2022/10/10 11:43:43;;;;;;;;;;;;;;;18.35;56.34;100787.63;4925700;28;119855;-77
2022/10/10 11:46:23;;;;;;;;;;;;;;;18.42;56.51;100784.38;4924370;28;119866;-77
2022/10/10 11:48:56;;;;;;;;;;;;;;;18.50;56.53;100776.31;4921071;28;120883;-77
2022/10/10 11:51:29;;;;;;;;;;;;;;;18.56;56.62;100783.38;4923284;28;119977;-76
2022/10/10 11:53:58;;;;;;;;;;;;;;;18.65;56.69;100785.19;4920862;28;119971;-77
2022/10/10 11:56:42;;;;;;;;;;;;;;;18.71;56.13;100774.84;4937458;28;119923;-77
2022/10/10 11:59:14;;;;;;;;;;;;;;;18.79;56.00;100775.84;4915503;28;120195;-79
2022/10/10 12:01:49;;;;;;;;;;;;;;;18.84;55.71;100780.66;4924159;28;120043;-77
2022/10/10 12:04:15;;;;;;;;;;;;;;;18.93;56.01;100783.19;4925709;28;120018;-76
2022/10/10 12:06:51;;;;;;;;;;;;;;;18.99;55.96;100772.81;4923846;28;119579;-77
2022/10/10 12:09:29;;;;;;;;;;;;;;;19.02;55.88;100766.25;4921887;28;120355;-76
2022/10/10 12:11:54;;;;;;;;;;;;;;;19.02;55.95;100766.25;4927482;28;120190;-77
2022/10/10 12:14:24;;;;;;;;;;;;;;;19.03;56.18;100761.44;4934093;28;119964;-77
2022/10/10 12:16:50;;;;;;;;;;;;;;;19.05;55.92;100766.50;4928910;28;119722;-77
2022/10/10 12:19:21;;;;;;;;;;;;;;;19.05;56.24;100766.50;4927883;28;119931;-77
2022/10/10 12:22:07;;;;;;;;;;;;;;;19.06;56.28;100768.00;4910952;28;119874;-77
2022/10/10 12:24:37;;;;;;;;;;;;;;;19.09;56.31;100770.53;4928426;28;120127;-77
2022/10/10 12:27:02;;;;;;;;;;;;;;;19.12;56.21;100758.38;4925958;28;119959;-76
2022/10/10 12:29:40;;;;;;;;;;;;;;;19.12;56.11;100771.53;4926614;28;119948;-77
2022/10/10 12:32:22;;;;;;;;;;;;;;;19.11;56.20;100758.91;4927173;28;119636;-77
2022/10/10 12:34:48;;;;;;;;;;;;;;;19.09;56.03;100767.75;4925946;28;121582;-76
2022/10/10 12:37:22;;;;;;;;;;;;;;;19.12;55.99;100771.53;4928307;28;120942;-76
2022/10/10 12:40:05;;;;;;;;;;;;;;;19.13;56.21;100761.91;4927194;28;119656;-77
2022/10/10 12:42:32;;;;;;;;;;;;;;;19.16;56.02;100758.13;4927937;28;119695;-77